Bois D'Arc, MO (65612)

11:57 AM CST on March 06, 2015 (GMT -0600)
South of Halltown, MO. Near Camp Wakonda. | Change Station
CLOSE
Current Station
Personal Weather Station
Location: Ash Grove, MO
Elevation: 1224 ft
Nearby Weather Stations

Elev 1224 ft 37.16 °N, 93.65 °W | Updated 8 minutes ago

Clear
Clear
46.6 °F
Feels Like 41 °F
N
12.5
Wind Variable Wind from SW

Today
High -- | Low -- °F
--% Chance of Precip.
Yesterday
High -- | Low -- °F
Precip. -- in
6:38 AM 6:12 PM
Full, 99% visible
Pressure 30.45 in
Visibility 10.0 miles
Clouds Clear
Windchill 41 °F
Dew Point 28 °F
Humidity 49%
Rainfall in
Snow Depth Not available.
UV 7 out of 12
Pollen 4.80 out of 12
Air Quality Not available.
Flu Activity Not available.
METAR KSGF 061752Z 23016KT 10SM CLR 07/M04 A3041 RMK AO2 SLP311 T00671044 10072 21061 58008 $

More Conditions Fewer Conditions

Pressure 30.45 in
Visibility 10.0 miles
Clouds Clear
Windchill 41 °F
Dew Point 28 °F
Humidity 49%
Rainfall in
Snow Depth Not available.
UV 7 out of 12
Pollen 4.80 out of 12
Air Quality Not available.
Flu Activity Not available.
METAR KSGF 061752Z 23016KT 10SM CLR 07/M04 A3041 RMK AO2 SLP311 T00671044 10072 21061 58008 $

More Conditions Fewer Conditions

10-Day Weather Forecast

Almanac

Astronomy

Mar. 06, 2015 Rise Set
Actual Time
Civil Twilight
Nautical Twilight
Astronomical Twilight
Moon
Length of Visible Light
Length of Day
Tomorrow will be .
, % of the Moon is Illuminated

Today's Extremes

State Highs State Lows

Community

WunderPhotos

Upload Photos

1,803,347 photos uploaded!

WunderBlogs® & News

Nearby

Air Quality

  Air Quality AQ Index Pollutant
Not available.

Snow Depth

Station Depth Elevation

Earthquake Activity

City Distance Mag. Time & Date
Minimum magnitude displayed is 2.5.

Coastal Water Temperatures

Place Temperature

Nearby Weather Stations